Airfield :
LOGIN :

Register | Disclaimer

   EN    FR    IT 

 










Legend :    VFR   Marginal VFR   IFR   Intensive IFR   Very Intensive IFR
Visi :
Ceiling :
>= 8 km
>= 3000ft
5 to 8 km
1000 to 3000 ft
1500m to 5 km
500 to 1000 ft
800 to 1500m
200 to 500 ft
< 800m
< 200 ft
Symbols :   Thunderstorms  Fog  Heavy snow  Heavy precipitations  Wind > 20 kt
SIGMETs :     Misc.  Thunderstorms  Icing  Turbulence  Mountain Waves  Volcanic Ashes






- Airport Elevation : 291 ft
- IATA code : ORY


LFPO - Paris-Orly

CURRENT METAR :
  • 260800Z 22004KT 9999 FEW043 SCT260 M00/M03 Q1022 NOSIG

EXPIRED METARs :
  • 260730Z 23006KT 9999 FEW043 SCT260 M01/M03 Q1021 NOSIG
  • 260700Z 24007KT 9999 FEW043 SCT260 M01/M03 Q1021 NOSIG
  • 260630Z 24006KT 9999 FEW043 SCT260 M01/M03 Q1021 NOSIG
  • 260600Z 25007KT 9999 FEW043 M00/M03 Q1021 NOSIG
  • 260530Z 25006KT 9999 BKN043 00/M02 Q1021 NOSIG

TAF TAF LFPO
Valid from the 26 at 06:00 until the 27 at 12:00 UTC


260500Z 2606/2712 23006KT CAVOK
TEMPO 2620/2703 -RA BKN025
PROB30
TEMPO 2620/2624 4000 -RASN
BECMG 2701/2703 BKN012
TEMPO 2705/2712 2500 BR BKN003
PROB30
TEMPO 2705/2710 0500 FG VV///
ATIS : +33 1 49 75 65 80



MET'MAP, your aeronautical weather chart ! - Copyright ORBIFLY December 2007 - Disclaimer

ORBIFLY MET'MAP TEAM :

Programming & Development : Alexandra Zaïnal
Concept & original design : Baudouin d'Aumeries
Assistance for programming : Marc-Olivier Méhu
Technical & hardware support : Manuel Goepfert

Contact : metmap@orbifly.com




SOURCES & CREDITS :

   NOAA